Time;durP1;ratioP1;P1;durP2;ratioP2;P2;SDS_P1;SDS_P2;PMS_P1;PMS_P2;Temp;Humidity;BMP_temperature;BMP_pressure;BME280_temperature;BME280_humidity;BME280_pressure;Samples;Min_cycle;Max_cycle;Signal;HPM_P1;HPM_P2
2021/05/25 00:02:22;;;;;;;3.28;0.55;;;7.20;99.90;;;6.35;83.37;97224.00;5086184;28;20072;-74
2021/05/25 00:04:49;;;;;;;2.35;0.40;;;7.10;99.90;;;6.38;83.17;97216.97;5083635;28;20044;-73
2021/05/25 00:07:16;;;;;;;4.10;0.50;;;7.10;99.90;;;6.18;83.72;97245.09;5081252;28;20046;-74
2021/05/25 00:09:43;;;;;;;3.63;0.50;;;7.20;99.90;;;6.24;83.83;97232.03;5073413;28;20041;-73
2021/05/25 00:12:11;;;;;;;2.60;0.60;;;7.20;99.90;;;6.35;83.30;97219.66;5086152;28;20062;-73
2021/05/25 00:14:38;;;;;;;4.85;0.75;;;7.20;99.90;;;6.31;83.49;97215.50;5071361;28;20037;-74
2021/05/25 00:17:05;;;;;;;4.30;0.70;;;7.20;99.90;;;6.26;83.36;97207.06;5072157;28;20048;-73
2021/05/25 00:19:31;;;;;;;3.67;0.70;;;7.20;99.90;;;6.18;83.39;97243.41;5082273;28;20045;-73
2021/05/25 00:21:58;;;;;;;1.75;0.47;;;7.30;99.90;;;6.24;83.02;97232.88;5079195;28;20071;-72
2021/05/25 00:24:25;;;;;;;2.83;0.60;;;7.40;99.90;;;6.27;83.21;97244.81;5080132;28;20044;-72
2021/05/25 00:26:52;;;;;;;3.63;0.75;;;7.40;99.90;;;6.32;83.07;97222.34;5073061;28;20557;-72
2021/05/25 00:29:20;;;;;;;2.22;0.57;;;7.40;99.90;;;6.30;83.34;97225.88;5072584;28;20051;-72
2021/05/25 00:31:47;;;;;;;1.30;0.55;;;7.40;99.90;;;6.38;82.90;97236.75;5079837;28;20136;-72
2021/05/25 00:34:14;;;;;;;3.60;0.80;;;7.40;99.90;;;6.26;82.94;97243.16;5071583;28;20044;-72
2021/05/25 00:36:41;;;;;;;1.63;0.45;;;7.40;99.90;;;6.23;83.53;97238.94;5070057;28;20331;-72
2021/05/25 00:39:08;;;;;;;3.83;0.50;;;7.40;99.90;;;6.22;83.52;97236.41;5070315;28;20040;-72
2021/05/25 00:41:36;;;;;;;2.17;0.60;;;7.40;99.90;;;6.23;83.58;97249.25;5073807;28;20044;-72
2021/05/25 00:44:10;;;;;;;4.90;0.82;;;7.50;99.90;;;6.28;83.86;97239.63;5073759;28;20059;-73
2021/05/25 00:46:38;;;;;;;2.20;0.50;;;7.40;99.90;;;6.33;83.27;97216.28;5071283;28;20093;-73
2021/05/25 00:49:06;;;;;;;4.20;0.70;;;7.40;99.90;;;6.28;83.39;97256.84;5083676;28;20052;-72
2021/05/25 00:51:35;;;;;;;4.22;0.60;;;7.40;99.90;;;6.26;83.26;97223.38;5077924;28;20473;-71
2021/05/25 00:54:03;;;;;;;2.53;0.50;;;7.40;99.90;;;6.27;82.54;97219.91;5072790;28;20106;-72
2021/05/25 00:56:30;;;;;;;3.60;0.43;;;7.40;99.90;;;6.33;82.28;97207.72;5078555;28;20062;-72
2021/05/25 00:58:58;;;;;;;4.40;0.95;;;7.40;99.90;;;6.36;82.72;97220.50;5088484;28;20484;-72
2021/05/25 01:01:25;;;;;;;1.83;0.47;;;7.40;99.90;;;6.32;82.19;97229.22;5081013;28;20047;-71
2021/05/25 01:03:53;;;;;;;4.25;0.57;;;7.30;99.90;;;6.32;82.70;97224.94;5073329;28;20581;-71
2021/05/25 01:06:20;;;;;;;3.72;0.50;;;7.40;99.90;;;6.26;82.58;97215.63;5072864;28;20056;-73
2021/05/25 01:08:47;;;;;;;5.55;0.77;;;7.30;99.90;;;6.48;82.02;97225.28;5081016;28;20040;-74
2021/05/25 01:11:18;;;;;;;1.85;0.50;;;7.20;99.90;;;6.37;82.53;97235.09;5082281;28;20386;-73
2021/05/25 01:13:56;;;;;;;2.10;0.45;;;7.30;99.90;;;6.38;82.25;97216.16;5085210;28;20051;-74
2021/05/25 01:16:26;;;;;;;5.68;0.50;;;7.30;99.90;;;6.21;82.90;97227.81;5068635;28;20467;-73
2021/05/25 01:18:54;;;;;;;2.85;0.60;;;7.30;99.90;;;6.35;82.05;97222.25;5085744;28;20029;-74
2021/05/25 01:21:23;;;;;;;0.85;0.30;;;7.20;99.90;;;6.24;82.17;97242.34;5068399;28;20033;-73
2021/05/25 01:23:50;;;;;;;1.48;0.40;;;7.20;99.90;;;6.18;82.08;97234.81;5089134;28;20055;-73
2021/05/25 01:26:18;;;;;;;4.95;0.52;;;7.10;99.90;;;6.07;82.29;97246.28;5081508;28;20442;-73
2021/05/25 01:28:48;;;;;;;3.15;0.50;;;7.10;99.90;;;6.16;82.66;97234.00;5069187;28;20048;-73
2021/05/25 01:31:16;;;;;;;6.32;0.85;;;7.10;99.90;;;6.18;82.08;97240.81;5068584;28;20539;-73
2021/05/25 01:33:44;;;;;;;4.65;0.50;;;7.10;99.90;;;6.13;82.56;97228.94;5069098;28;20040;-73
2021/05/25 01:36:15;;;;;;;4.80;0.50;;;7.10;99.90;;;6.19;81.73;97251.97;5084551;28;20048;-73
2021/05/25 01:38:47;;;;;;;4.30;0.60;;;7.10;99.90;;;6.10;82.21;97231.63;5079148;28;20058;-73
2021/05/25 01:41:14;;;;;;;3.65;0.57;;;7.20;99.90;;;6.14;81.94;97248.69;5069561;28;20485;-73
2021/05/25 01:43:41;;;;;;;3.92;0.68;;;7.20;99.90;;;6.18;82.18;97230.50;5074224;28;20118;-74
2021/05/25 01:46:09;;;;;;;4.40;0.40;;;7.20;99.90;;;6.06;82.05;97264.34;5084788;28;20050;-74
2021/05/25 01:48:36;;;;;;;4.03;0.60;;;7.20;99.90;;;6.12;81.79;97251.31;5070699;28;20449;-73
2021/05/25 01:51:04;;;;;;;3.05;0.50;;;7.20;99.90;;;6.37;81.19;97235.94;5079769;28;20114;-73
2021/05/25 01:53:31;;;;;;;3.80;0.60;;;7.20;99.90;;;6.16;81.16;97242.59;5073408;28;20044;-73
2021/05/25 01:55:59;;;;;;;2.92;0.63;;;7.20;99.90;;;6.14;81.90;97244.38;5085580;28;20044;-73
2021/05/25 01:58:32;;;;;;;2.28;0.40;;;7.20;99.90;;;6.26;80.91;97246.56;5076183;28;20045;-73
2021/05/25 02:01:11;;;;;;;3.92;0.52;;;7.10;99.90;;;6.15;81.91;97242.63;5069516;28;20044;-73
2021/05/25 02:03:40;;;;;;;1.80;0.43;;;7.10;99.90;;;6.15;81.41;97242.63;5068680;28;20108;-73
2021/05/25 02:06:09;;;;;;;1.58;0.50;;;7.20;99.90;;;6.21;81.34;97250.19;5075134;28;20090;-73
2021/05/25 02:08:39;;;;;;;4.70;0.60;;;7.20;99.90;;;6.21;81.42;97250.19;5082415;28;20130;-73
2021/05/25 02:11:08;;;;;;;4.32;0.70;;;7.10;99.90;;;6.17;81.29;97233.13;5087898;28;20499;-73
2021/05/25 02:13:38;;;;;;;6.10;0.70;;;7.20;99.90;;;6.14;81.56;97265.00;5073769;28;20040;-73
2021/05/25 02:16:12;;;;;;;6.03;0.90;;;7.20;99.90;;;6.11;82.21;97264.22;5084183;28;20134;-73
2021/05/25 02:18:44;;;;;;;2.05;0.40;;;7.20;99.90;;;6.16;81.56;97278.69;5071527;28;20505;-73
2021/05/25 02:21:14;;;;;;;2.50;0.50;;;7.10;99.90;;;6.16;81.76;97270.06;5077242;28;20447;-73
2021/05/25 02:23:43;;;;;;;1.75;0.40;;;7.10;99.90;;;6.10;81.90;97237.63;5080305;28;20793;-72
2021/05/25 02:26:10;;;;;;;3.90;0.60;;;7.10;99.90;;;6.06;82.03;97303.84;5089534;28;20048;-71
2021/05/25 02:28:38;;;;;;;3.90;0.60;;;7.10;99.90;;;6.13;82.05;97270.19;5085501;28;20036;-71
2021/05/25 02:31:07;;;;;;;3.08;0.40;;;7.10;99.90;;;6.16;81.20;97268.38;5071997;28;20036;-71
2021/05/25 02:33:35;;;;;;;3.15;0.63;;;7.10;99.90;;;6.08;81.97;97260.84;5070533;28;20488;-71
2021/05/25 02:36:03;;;;;;;1.88;0.65;;;7.10;99.90;;;5.96;81.97;97271.53;5076479;28;20439;-73
2021/05/25 02:38:32;;;;;;;4.57;1.08;;;7.10;99.90;;;5.95;82.11;97282.69;5077066;28;20041;-73
2021/05/25 02:41:00;;;;;;;3.58;0.52;;;7.10;99.90;;;5.98;82.12;97263.75;5070793;28;20040;-73
2021/05/25 02:43:29;;;;;;;3.33;0.52;;;7.00;99.90;;;6.00;81.80;97282.59;5071867;28;20060;-73
2021/05/25 02:45:58;;;;;;;2.17;0.57;;;7.10;99.90;;;5.99;82.24;97283.47;5074111;28;20056;-72
2021/05/25 02:48:26;;;;;;;4.38;0.60;;;7.00;99.90;;;6.02;82.12;97257.59;5075213;28;20358;-73
2021/05/25 02:50:53;;;;;;;3.65;0.70;;;7.00;99.90;;;5.88;82.43;97286.31;5071038;28;20040;-72
2021/05/25 02:53:21;;;;;;;5.13;0.85;;;6.90;99.90;;;5.82;82.72;97268.47;5077280;28;20380;-73
2021/05/25 02:55:49;;;;;;;5.40;0.60;;;7.00;99.90;;;5.79;83.24;97278.84;5084369;28;20051;-73
2021/05/25 02:58:16;;;;;;;5.15;0.85;;;7.00;99.90;;;5.87;82.15;97270.03;5088675;28;20592;-73
2021/05/25 03:00:46;;;;;;;3.78;0.90;;;7.00;99.90;;;5.94;81.92;97286.19;5088729;28;20036;-73
2021/05/25 03:03:14;;;;;;;4.90;0.63;;;6.90;99.90;;;5.94;81.71;97277.56;5082000;28;20522;-73
2021/05/25 03:05:43;;;;;;;4.35;0.77;;;6.80;99.90;;;5.89;81.71;97293.16;5081246;28;20044;-73
2021/05/25 03:08:11;;;;;;;6.72;0.75;;;6.90;99.90;;;5.97;81.29;97264.63;5061147;28;20077;-73
2021/05/25 03:10:42;;;;;;;4.05;0.60;;;6.90;99.90;;;5.94;80.69;97283.59;5065644;28;20369;-72
2021/05/25 03:13:10;;;;;;;4.30;0.68;;;6.90;99.90;;;5.95;81.05;97276.72;5072498;28;20044;-72
2021/05/25 03:15:43;;;;;;;1.65;0.50;;;7.00;99.90;;;5.89;80.82;97284.59;5059426;28;20508;-72
2021/05/25 03:18:11;;;;;;;2.58;0.50;;;7.00;99.90;;;5.95;81.13;97261.25;5076181;28;20091;-73
2021/05/25 03:20:43;;;;;;;4.63;0.40;;;7.00;99.90;;;5.97;80.61;97291.22;5084145;28;20032;-72
2021/05/25 03:23:10;;;;;;;7.88;0.90;;;6.90;99.90;;;6.07;80.59;97259.16;5082121;28;20063;-72
2021/05/25 03:25:38;;;;;;;3.58;0.82;;;6.90;99.90;;;5.85;81.10;97281.25;5082010;28;20481;-73
2021/05/25 03:28:05;;;;;;;2.97;0.50;;;6.90;99.90;;;6.02;80.25;97242.16;5070999;28;20338;-72
2021/05/25 03:30:32;;;;;;;3.90;0.50;;;6.90;99.90;;;5.81;80.82;97282.22;5079033;28;20044;-72
2021/05/25 03:32:59;;;;;;;7.85;0.60;;;6.90;99.90;;;5.96;79.94;97239.78;5074889;28;20040;-72
2021/05/25 03:35:28;;;;;;;4.88;0.60;;;6.90;99.90;;;5.95;79.92;97266.41;5080236;28;20412;-73
2021/05/25 03:37:56;;;;;;;2.50;0.60;;;7.00;99.90;;;6.01;80.02;97267.06;5083764;28;20051;-73
2021/05/25 03:40:24;;;;;;;3.05;0.90;;;6.90;99.90;;;5.94;79.89;97275.88;5081384;28;20193;-73
2021/05/25 03:42:53;;;;;;;4.22;0.70;;;6.90;99.90;;;5.97;79.91;97249.19;5085879;28;20048;-73
2021/05/25 03:45:22;;;;;;;5.60;0.70;;;6.90;99.90;;;6.01;79.69;97243.88;5078697;28;20037;-72
2021/05/25 03:47:50;;;;;;;0.60;0.30;;;6.90;99.90;;;5.95;79.80;97274.13;5079362;28;20476;-72
2021/05/25 03:50:17;;;;;;;4.70;0.50;;;6.90;99.90;;;5.92;80.20;97254.44;5071447;28;20036;-72
2021/05/25 03:52:48;;;;;;;5.53;0.60;;;6.80;99.90;;;5.95;79.94;97261.25;5084470;28;20053;-72
2021/05/25 04:00:53;;;;;;;3.78;0.60;;;7.00;99.90;;;5.89;80.69;97288.00;5083033;28;20070;-72
2021/05/25 04:03:20;;;;;;;4.93;0.60;;;6.90;99.90;;;5.92;80.77;97262.16;5084232;28;20145;-72
2021/05/25 04:05:47;;;;;;;3.47;0.57;;;7.00;99.90;;;6.06;80.52;97270.34;5078217;28;20135;-72
2021/05/25 04:08:16;;;;;;;2.50;0.40;;;7.00;99.90;;;6.21;80.25;97274.22;5081009;28;20059;-72
2021/05/25 04:10:45;;;;;;;2.92;0.50;;;7.00;99.90;;;6.13;80.43;97285.63;5080844;28;20445;-72
2021/05/25 04:13:14;;;;;;;5.75;0.60;;;7.10;99.90;;;6.07;80.98;97281.53;5069274;28;20048;-72
2021/05/25 04:15:51;;;;;;;2.75;0.60;;;7.20;99.90;;;6.15;81.09;97273.56;5078854;28;20044;-73
2021/05/25 04:18:19;;;;;;;1.00;0.50;;;7.20;99.90;;;6.18;81.17;97270.88;5070369;28;20098;-72
2021/05/25 04:20:46;;;;;;;2.97;0.73;;;7.20;99.90;;;6.18;81.14;97234.81;5086035;28;20052;-73
2021/05/25 04:23:14;;;;;;;1.95;0.50;;;7.20;99.90;;;6.07;82.04;97274.63;5080615;28;20093;-72
2021/05/25 04:25:42;;;;;;;3.50;0.82;;;7.20;99.90;;;6.01;82.87;97292.00;5082700;28;20101;-73
2021/05/25 04:28:09;;;;;;;1.67;0.75;;;7.10;99.90;;;5.97;83.00;97314.41;5093490;28;20046;-72
2021/05/25 04:30:36;;;;;;;1.38;0.40;;;7.10;99.90;;;6.08;82.84;97285.78;5083323;28;20094;-72
2021/05/25 04:33:04;;;;;;;4.80;0.50;;;7.00;99.90;;;6.08;82.38;97299.50;5084843;28;20558;-73
2021/05/25 04:35:32;;;;;;;2.42;0.60;;;6.90;99.90;;;6.10;82.82;97275.44;5080091;28;20075;-73
2021/05/25 04:37:59;;;;;;;1.70;0.50;;;7.10;99.90;;;6.05;82.51;97324.53;5088055;28;20032;-73
2021/05/25 04:40:27;;;;;;;6.22;0.75;;;7.10;99.90;;;6.03;82.63;97324.56;5064224;28;20041;-73
2021/05/25 04:42:54;;;;;;;2.22;0.60;;;7.10;99.90;;;6.07;82.83;97320.19;5073827;28;20093;-72
2021/05/25 04:45:22;;;;;;;2.22;0.85;;;7.20;99.90;;;6.12;83.19;97317.47;5076628;28;20040;-73
2021/05/25 04:47:49;;;;;;;4.55;0.65;;;7.10;99.90;;;6.16;83.44;97347.38;5074809;28;20044;-72
2021/05/25 04:50:18;;;;;;;3.80;0.40;;;7.20;99.90;;;6.28;83.39;97324.69;5069351;28;20566;-71
2021/05/25 04:52:47;;;;;;;2.90;0.50;;;7.30;99.90;;;6.21;83.37;97328.34;5079328;28;20302;-72
2021/05/25 04:55:17;;;;;;;4.78;0.60;;;7.40;99.90;;;6.14;83.43;97341.47;5072605;28;20036;-72
2021/05/25 04:57:49;;;;;;;;;;;7.20;99.90;;;6.04;84.51;97330.53;5076855;28;20725;-72
2021/05/25 05:00:20;;;;;;;1.02;0.40;;;7.10;99.90;;;5.97;85.27;97317.00;5091785;28;19920;-72
2021/05/25 05:02:47;;;;;;;1.63;0.55;;;7.00;99.90;;;6.03;86.76;97342.59;5070712;28;20052;-72
2021/05/25 05:05:15;;;;;;;1.65;0.43;;;6.90;99.90;;;5.85;87.17;97337.94;5083382;28;20101;-72
2021/05/25 05:07:43;;;;;;;2.47;1.00;;;6.90;99.90;;;5.81;85.41;97356.91;5075756;28;20173;-72
2021/05/25 05:10:11;;;;;;;1.83;0.60;;;6.90;99.90;;;5.82;86.74;97353.47;5084498;28;20048;-72
2021/05/25 05:12:38;;;;;;;2.83;0.82;;;6.80;99.90;;;5.81;86.85;97352.59;5079703;28;20500;-73
2021/05/25 05:15:07;;;;;;;3.40;0.60;;;6.90;99.90;;;5.87;86.93;97359.34;5070800;28;20102;-73
2021/05/25 05:17:34;;;;;;;5.78;0.77;;;6.80;99.90;;;5.90;86.37;97368.72;5077044;28;20040;-72
2021/05/25 05:20:07;;;;;;;6.35;0.57;;;6.90;99.90;;;5.95;87.57;97354.84;5075934;28;20105;-73
2021/05/25 05:22:35;;;;;;;6.72;0.60;;;6.90;99.90;;;5.76;88.66;97345.91;5067343;28;20277;-73
2021/05/25 05:25:05;;;;;;;1.67;0.40;;;6.80;99.90;;;5.73;87.47;97346.84;5082092;28;20063;-74
2021/05/25 05:27:33;;;;;;;4.90;0.63;;;6.80;99.90;;;6.95;80.66;97363.94;5078089;28;20553;-74
2021/05/25 05:30:00;;;;;;;2.55;0.70;;;6.70;99.90;;;5.78;86.74;97344.97;5082671;28;20039;-73
2021/05/25 05:32:27;;;;;;;3.40;0.70;;;6.70;99.90;;;5.57;89.50;97374.72;5084666;28;20048;-74
2021/05/25 05:34:53;;;;;;;3.60;0.50;;;6.60;99.90;;;5.55;90.50;97386.78;5073783;28;20078;-74
2021/05/25 05:37:20;;;;;;;2.72;0.70;;;6.60;99.90;;;5.70;90.79;97364.91;5083942;28;20044;-72
2021/05/25 05:39:48;;;;;;;1.63;0.47;;;6.70;99.90;;;5.73;89.49;97346.84;5086928;28;20511;-74
2021/05/25 05:42:15;;;;;;;2.72;0.80;;;6.70;99.90;;;5.56;91.24;97359.31;5067601;28;20052;-73
2021/05/25 05:44:44;;;;;;;2.75;0.70;;;6.60;99.90;;;5.58;90.95;97381.53;5072160;28;20497;-72
2021/05/25 05:47:11;;;;;;;3.67;0.90;;;6.70;99.90;;;5.75;90.77;97395.75;5071086;28;20051;-73
2021/05/25 05:49:39;;;;;;;1.77;0.50;;;6.80;99.90;;;5.77;89.88;97368.19;5072327;28;20044;-73
2021/05/25 05:52:06;;;;;;;1.92;0.60;;;6.80;99.90;;;5.86;90.17;97384.25;5072081;28;20518;-73
2021/05/25 05:54:33;;;;;;;1.27;0.40;;;6.80;99.90;;;5.67;89.33;97365.00;5071361;28;20166;-74
2021/05/25 05:57:00;;;;;;;4.15;0.95;;;6.70;99.90;;;5.55;89.39;97396.25;5072042;28;20045;-73
2021/05/25 05:59:27;;;;;;;2.47;0.57;;;6.70;99.90;;;5.74;90.69;97397.44;5072176;28;20062;-74
2021/05/25 06:01:54;;;;;;;2.17;0.40;;;6.70;99.90;;;-146.41;100.00;57768.22;5072618;28;20048;-73
2021/05/25 06:04:21;;;;;;;2.83;0.60;;;6.70;99.90;;;5.62;94.13;97364.31;5067809;28;20039;-73
2021/05/25 06:06:49;;;;;;;1.30;0.60;;;6.70;99.90;;;5.82;96.56;97386.97;5083511;28;20048;-73
2021/05/25 06:09:16;;;;;;;6.35;0.60;;;6.60;99.90;;;5.74;94.61;97401.75;5074415;28;20071;-73
2021/05/25 06:11:45;;;;;;;1.25;0.50;;;6.60;99.90;;;5.74;91.84;97423.19;5091531;28;20044;-73
2021/05/25 06:14:12;;;;;;;4.32;0.40;;;6.70;99.90;;;5.65;91.66;97389.97;5078104;28;20067;-73
2021/05/25 06:16:39;;;;;;;3.03;0.45;;;6.70;99.90;;;5.59;91.61;97418.47;5072516;28;20110;-74
2021/05/25 06:19:06;;;;;;;2.95;0.65;;;6.60;99.90;;;5.61;91.71;97398.63;5089335;28;20093;-74
2021/05/25 06:21:33;;;;;;;2.95;0.43;;;6.60;99.90;;;5.67;91.22;97403.63;5089752;28;20051;-74
2021/05/25 06:24:00;;;;;;;0.95;0.45;;;6.60;99.90;;;5.65;90.79;97428.59;5079996;28;20058;-73
2021/05/25 06:26:27;;;;;;;0.95;0.38;;;6.60;99.90;;;5.68;96.11;97420.81;5081654;28;20056;-73
2021/05/25 06:28:54;;;;;;;2.30;0.50;;;6.70;99.90;;;5.61;97.30;97399.50;5080721;28;20047;-73
2021/05/25 06:31:20;;;;;;;1.13;0.40;;;6.70;99.90;;;5.68;94.54;97419.94;5070511;28;20041;-73
2021/05/25 06:33:48;;;;;;;1.77;0.47;;;6.80;99.90;;;5.78;93.78;97416.25;5075154;28;20055;-73
2021/05/25 06:36:15;;;;;;;3.75;0.60;;;6.80;99.90;;;5.76;91.69;97412.88;5076711;28;20480;-73
2021/05/25 06:38:42;;;;;;;6.97;0.50;;;6.80;99.90;;;5.73;90.67;97421.53;5080697;28;20036;-73
2021/05/25 06:41:09;;;;;;;1.00;0.40;;;6.90;99.90;;;6.43;89.76;97446.28;5080596;28;20053;-73
2021/05/25 06:43:36;;;;;;;1.40;0.50;;;6.90;99.90;;;5.49;94.41;97412.66;5088522;28;20085;-73
2021/05/25 06:46:04;;;;;;;1.45;0.40;;;6.80;99.90;;;5.59;93.18;97409.00;5086011;28;20037;-73
2021/05/25 06:48:31;;;;;;;0.77;0.40;;;6.60;99.90;;;6.38;100.00;97459.31;5076422;28;20044;-73
2021/05/25 06:50:59;;;;;;;2.17;0.40;;;6.60;99.90;;;6.53;100.00;97440.00;5088879;28;20462;-73
2021/05/25 06:53:26;;;;;;;2.30;0.40;;;6.70;99.90;;;5.88;96.55;97433.13;5047896;28;20488;-73
2021/05/25 06:55:53;;;;;;;1.85;0.30;;;6.80;99.90;;;5.93;92.89;97453.63;5094829;28;20048;-73
2021/05/25 06:58:19;;;;;;;2.75;0.50;;;6.90;99.90;;;5.84;94.85;97454.75;5079813;28;20053;-73
2021/05/25 07:00:46;;;;;;;2.75;0.38;;;7.00;99.90;;;5.83;93.19;97459.00;5090802;28;20144;-73
2021/05/25 07:03:13;;;;;;;2.38;0.55;;;7.00;99.90;;;5.98;93.78;97437.22;5076024;28;20492;-73
2021/05/25 07:05:40;;;;;;;4.38;0.63;;;6.90;99.90;;;6.00;93.07;97460.38;5086343;28;20044;-73
2021/05/25 07:08:09;;;;;;;3.08;0.50;;;6.90;99.90;;;5.94;93.71;97442.44;5080572;28;20040;-72
2021/05/25 07:10:36;;;;;;;3.88;0.73;;;7.00;99.90;;;6.06;93.81;97452.47;5073091;28;20052;-72
2021/05/25 07:13:03;;;;;;;2.00;0.50;;;7.20;99.90;;;5.78;92.88;97468.59;5075439;28;20504;-73
2021/05/25 07:15:30;;;;;;;1.30;0.50;;;7.30;99.90;;;6.01;94.38;97467.19;5071562;28;20067;-72
2021/05/25 07:17:57;;;;;;;3.45;0.60;;;7.10;99.90;;;6.10;92.11;97424.88;5079635;28;20040;-73
2021/05/25 07:20:25;;;;;;;3.42;0.50;;;7.10;99.90;;;6.19;93.00;97474.44;5082773;28;20040;-73
2021/05/25 07:22:53;;;;;;;2.10;0.30;;;7.20;99.90;;;6.40;89.88;97467.84;5080185;28;20409;-73
2021/05/25 07:25:23;;;;;;;3.22;0.32;;;7.30;99.90;;;6.18;89.56;97484.78;5076173;28;20056;-73
2021/05/25 07:27:51;;;;;;;1.70;0.40;;;7.40;99.90;;;6.12;89.46;97484.97;5087309;28;20218;-73
2021/05/25 07:30:19;;;;;;;2.05;0.47;;;7.40;99.90;;;6.01;92.16;97504.09;5089179;28;20052;-73
2021/05/25 07:32:46;;;;;;;0.98;0.35;;;7.40;99.90;;;6.21;91.71;97487.28;5072860;28;20134;-73
2021/05/25 07:35:14;;;;;;;1.92;0.30;;;7.30;99.90;;;6.07;90.75;97475.63;5072325;28;20041;-72
2021/05/25 07:37:42;;;;;;;1.98;0.50;;;7.10;99.90;;;6.14;90.95;97468.56;5070848;28;20504;-72
2021/05/25 07:40:15;;;;;;;1.42;0.40;;;7.10;99.90;;;5.95;91.84;97496.53;5081932;28;20122;-73
2021/05/25 07:42:44;;;;;;;1.55;0.40;;;7.00;99.90;;;5.93;92.12;97495.72;5071946;28;20089;-72
2021/05/25 07:45:13;;;;;;;1.13;0.30;;;7.10;99.90;;;5.97;91.69;97481.03;5087113;28;20053;-72
2021/05/25 07:47:40;;;;;;;2.20;0.40;;;6.90;99.90;;;5.88;92.45;97518.16;5076278;28;20044;-72
2021/05/25 07:50:13;;;;;;;1.92;0.63;;;6.90;99.90;;;5.77;92.77;97504.69;5085183;28;20072;-72
2021/05/25 07:52:58;;;;;;;2.80;0.50;;;6.90;99.90;;;5.77;92.97;97520.13;5090760;28;20067;-72
2021/05/25 07:55:28;;;;;;;1.15;0.40;;;6.90;99.90;;;5.87;92.28;97486.41;5078644;28;20124;-73
2021/05/25 07:57:56;;;;;;;2.10;0.50;;;6.80;99.90;;;5.74;93.50;97517.66;5074954;28;20036;-72
2021/05/25 08:00:24;;;;;;;4.63;0.50;;;6.90;99.90;;;5.80;93.42;97520.91;5063845;28;20040;-72
2021/05/25 08:02:51;;;;;;;4.25;0.30;;;6.90;99.90;;;5.89;91.80;97537.88;5090809;28;20048;-72
2021/05/25 08:05:19;;;;;;;0.98;0.40;;;6.90;99.90;;;5.97;92.82;97537.72;5074097;28;20037;-72
2021/05/25 08:07:47;;;;;;;1.50;0.50;;;6.90;99.90;;;6.00;91.85;97542.81;5070539;28;20048;-73
2021/05/25 08:10:16;;;;;;;0.93;0.40;;;6.90;99.90;;;6.04;92.13;97550.44;5085949;28;20103;-72
2021/05/25 08:12:44;;;;;;;1.27;0.40;;;7.00;99.90;;;6.11;91.24;97539.94;5069280;28;20063;-72
2021/05/25 08:15:16;;;;;;;1.73;0.40;;;7.00;99.90;;;6.03;90.89;97551.31;5069350;28;20090;-72
2021/05/25 08:20:16;;;;;;;1.52;0.30;;;7.20;99.90;;;6.20;89.57;97560.34;5079048;28;20044;-72
2021/05/25 08:23:08;;;;;;;1.30;0.55;;;7.30;99.90;;;6.26;90.83;97552.44;5088257;28;20079;-72
2021/05/25 08:25:35;;;;;;;2.40;0.40;;;7.50;99.90;;;6.45;89.50;97558.84;5084238;28;20084;-72
2021/05/25 08:28:05;;;;;;;3.85;0.50;;;7.60;99.90;;;6.37;89.85;97559.91;5068314;28;20075;-73
2021/05/25 08:30:39;;;;;;;1.90;0.45;;;7.50;99.90;;;6.19;90.69;97612.78;5069374;28;20075;-72
2021/05/25 08:33:09;;;;;;;4.18;0.50;;;7.40;99.90;;;6.11;93.88;97576.88;5081904;28;20052;-73
2021/05/25 08:35:39;;;;;;;3.40;0.60;;;7.40;99.90;;;6.17;92.64;97576.72;5088334;28;20058;-73
2021/05/25 08:38:09;;;;;;;2.58;0.50;;;7.30;99.90;;;6.15;91.90;97577.66;5073337;28;20040;-72
2021/05/25 08:40:37;;;;;;;2.38;0.60;;;7.30;99.90;;;6.36;91.78;97595.13;5100725;28;20198;-73
2021/05/25 08:43:05;;;;;;;4.63;0.77;;;7.30;99.90;;;6.37;92.61;97586.53;5103614;28;20047;-73
2021/05/25 08:45:32;;;;;;;11.52;4.10;;;7.50;99.90;;;6.28;92.23;97597.09;5051592;28;20447;-73
2021/05/25 08:48:00;;;;;;;10.55;4.22;;;7.50;99.90;;;6.57;91.95;97606.66;5076780;28;20145;-73
2021/05/25 08:50:49;;;;;;;7.75;0.80;;;7.60;99.90;;;6.49;90.78;97612.00;5105137;28;20068;-73
2021/05/25 08:53:17;;;;;;;6.45;0.88;;;7.50;99.90;;;6.38;92.47;97592.53;5074393;28;20044;-73
2021/05/25 08:55:48;;;;;;;17.90;5.50;;;7.50;99.90;;;6.46;91.14;97609.50;5089109;28;20456;-73
2021/05/25 08:58:15;;;;;;;12.27;3.85;;;7.50;99.90;;;6.48;92.36;97604.31;5078739;28;20051;-73
2021/05/25 09:00:42;;;;;;;6.00;1.00;;;7.50;99.90;;;6.58;91.59;97610.06;5081912;28;20055;-72
2021/05/25 09:03:09;;;;;;;10.88;2.92;;;7.50;99.90;;;6.51;92.15;97604.22;5073974;28;20504;-73
2021/05/25 09:05:38;;;;;;;11.95;3.92;;;7.50;99.90;;;6.37;92.56;97634.69;5076988;28;20399;-73
2021/05/25 09:08:05;;;;;;;4.45;0.98;;;7.60;99.90;;;6.63;92.20;97609.06;5078303;28;20479;-73
2021/05/25 09:10:42;;;;;;;8.80;3.05;;;7.60;99.90;;;6.36;92.73;97620.91;5087243;28;20047;-73
2021/05/25 09:13:28;;;;;;;8.98;2.53;;;7.60;99.90;;;6.43;92.78;97650.84;5070502;28;20039;-73
2021/05/25 09:15:58;;;;;;;6.18;1.08;;;7.60;99.90;;;6.41;89.94;97650.03;5077399;28;20101;-73
2021/05/25 09:18:34;;;;;;;13.10;4.00;;;7.60;99.90;;;6.57;91.05;97650.50;5080749;28;20036;-73
2021/05/25 09:21:06;;;;;;;3.65;0.82;;;7.80;99.90;;;6.78;88.40;97663.72;5074806;28;20044;-73
2021/05/25 09:23:33;;;;;;;4.90;0.80;;;8.00;99.90;;;7.05;88.61;97638.94;5076690;28;20115;-73
2021/05/25 09:26:16;;;;;;;5.25;1.38;;;8.30;99.90;;;7.32;89.21;97630.41;5073105;28;20490;-73
2021/05/25 09:29:06;;;;;;;4.45;0.98;;;8.40;99.90;;;7.37;86.26;97645.75;5054746;28;20040;-73
2021/05/25 09:31:47;;;;;;;4.40;0.88;;;8.50;99.90;;;8.32;84.57;97631.66;5080137;28;20417;-73
2021/05/25 09:34:24;;;;;;;3.47;0.68;;;9.10;99.90;;;8.43;82.59;97652.88;5075687;28;20044;-73
2021/05/25 09:37:05;;;;;;;6.28;0.52;;;9.60;99.90;;;8.58;83.14;97654.13;5072535;28;20036;-72
2021/05/25 09:39:50;;;;;;;2.45;0.63;;;10.00;99.90;;;8.18;81.93;97647.63;5089074;28;20643;-72
2021/05/25 09:42:18;;;;;;;4.93;0.80;;;10.10;99.90;;;8.36;84.65;97631.50;5082985;28;20066;-72
2021/05/25 09:45:08;;;;;;;5.32;1.13;;;10.10;99.90;;;8.33;85.08;97635.94;5070249;28;20512;-73
2021/05/25 09:47:53;;;;;;;5.13;0.82;;;10.00;99.90;;;8.33;82.03;97649.72;5077067;28;20109;-72
2021/05/25 09:50:24;;;;;;;3.30;0.85;;;9.70;99.90;;;8.24;84.00;97646.59;5071788;28;20083;-72
2021/05/25 09:53:11;;;;;;;6.43;1.20;;;9.60;99.90;;;8.23;85.60;97661.22;5074309;28;20044;-71
2021/05/25 09:55:59;;;;;;;2.55;0.60;;;9.90;99.90;;;8.45;84.03;97661.44;5065161;28;20044;-72
2021/05/25 09:58:32;;;;;;;4.90;0.82;;;9.70;99.90;;;8.08;80.59;97679.84;5072080;28;20036;-72
2021/05/25 10:01:01;;;;;;;4.70;0.70;;;9.60;99.90;;;8.25;82.33;97620.66;5074244;28;20040;-71
2021/05/25 10:03:29;;;;;;;4.10;0.75;;;9.40;99.90;;;8.02;81.79;97674.84;5075013;28;20065;-72
2021/05/25 10:06:01;;;;;;;2.30;0.60;;;9.50;99.90;;;7.88;80.52;97676.09;5088334;28;20054;-72
2021/05/25 10:08:29;;;;;;;4.72;0.70;;;9.40;99.90;;;8.02;81.83;97673.09;5079565;28;20063;-72
2021/05/25 10:10:58;;;;;;;3.05;0.65;;;9.30;99.90;;;8.71;82.27;97662.31;5066312;28;20049;-72
2021/05/25 10:13:28;;;;;;;5.55;0.70;;;9.60;99.90;;;8.07;82.74;97685.88;5079584;28;20048;-72
2021/05/25 10:15:57;;;;;;;2.90;0.70;;;9.90;99.90;;;7.79;82.63;97698.81;5073234;28;20116;-72
2021/05/25 10:21:10;;;;;;;6.30;1.42;;;9.30;99.90;;;7.67;87.17;97689.69;5086624;28;20048;-72
2021/05/25 10:23:39;;;;;;;2.47;0.45;;;9.10;99.90;;;7.68;83.42;97681.03;5071657;28;20040;-72
2021/05/25 10:26:19;;;;;;;4.28;1.10;;;8.80;99.90;;;7.37;83.09;97701.69;5037315;28;20048;-72
2021/05/25 10:28:51;;;;;;;5.55;0.82;;;8.80;99.90;;;7.84;83.17;97687.41;5076292;28;20052;-72
2021/05/25 10:31:33;;;;;;;6.37;1.93;;;8.80;99.90;;;7.69;86.05;97699.06;5062742;28;20102;-72
2021/05/25 10:34:20;;;;;;;4.18;1.10;;;8.90;99.90;;;7.23;83.51;97708.13;5071598;28;20118;-73
2021/05/25 10:36:48;;;;;;;6.25;1.00;;;8.80;99.90;;;7.56;86.67;97696.88;5088013;28;20051;-72
2021/05/25 10:39:35;;;;;;;5.75;1.83;;;8.60;99.90;;;7.14;87.41;97708.38;5079373;28;21163;-72
2021/05/25 10:42:25;;;;;;;6.25;1.33;;;8.40;99.90;;;7.18;86.97;97699.63;5081900;28;20068;-72
2021/05/25 10:45:04;;;;;;;8.48;1.73;;;8.30;99.90;;;7.35;86.96;97699.19;5077176;28;20100;-72
2021/05/25 10:47:37;;;;;;;7.13;1.70;;;8.30;99.90;;;7.22;88.61;97688.34;5078605;28;20082;-72
2021/05/25 10:50:25;;;;;;;8.02;2.05;;;8.30;99.90;;;7.45;88.86;97690.28;5069885;28;20051;-72
2021/05/25 10:52:55;;;;;;;12.18;1.50;;;8.40;99.90;;;7.89;85.60;97734.69;5075438;28;20029;-72
2021/05/25 10:55:42;;;;;;;10.73;1.38;;;9.20;99.90;;;8.64;85.30;97709.97;5076670;28;20039;-72